OEMA/MED METAR and TAF weather

Enter ICAO airport designator
Station Type Date Time Source
OEMA METAR 2019/04/22 16:00 UTC NOAA

OEMA 221600Z 31004KT CAVOK 28/M12 Q1012 NOSIG


Station Type Date Time Source
OEMA Decoded METAR 2019/04/22 16:00 UTC NOAA

Madinah, Saudi Arabia (OEMA) 24-33N 039-42E 636M
Apr 22, 2019 - 12:00 PM EDT / 2019.04.22 1600 UTC
Wind: from the NW (310 degrees) at 5 MPH (4 KT):0
Visibility: greater than 7 mile(s):0
Temperature: 82 F (28 C)
Dew Point: 10 F (-12 C)
Relative Humidity: 6%
Pressure (altimeter): 29.88 in. Hg (1012 hPa)
ob: OEMA 221600Z 31004KT CAVOK 28/M12 Q1012 NOSIG
cycle: 16

Station Type Date Time Source
OEMA TAF 2019/04/22 12:06 UTC NOAA

TAF OEMA 221100Z 2212/2318 30008KT 1500 DU NSC
BECMG 2218/2220 36010KT 7000

Example: see airport list